KBNL/BNL METAR and TAF weather

Enter ICAO airport designator
Station Type Date Time Source
KBNL METAR 2022/10/01 07:35 UTC NOAA

KBNL 010735Z AUTO 00000KT 10SM BKN050 BKN055 15/13 A2976 RMK AO2


Station Type Date Time Source
KBNL Decoded METAR 2022/10/01 07:35 UTC NOAA

Station name not available
Oct 01, 2022 - 03:35 AM EDT / 2022.10.01 0735 UTC
Wind: Calm:0
Visibility: 10 mile(s):0
Sky conditions: mostly cloudy
Temperature: 59 F (15 C)
Dew Point: 55 F (13 C)
Relative Humidity: 87%
Pressure (altimeter): 29.76 in. Hg (1007 hPa)
ob: KBNL 010735Z AUTO 00000KT 10SM BKN050 BKN055 15/13 A2976 RMK AO2
cycle: 7

Station Type Date Time Source
KBNL TAF UTC NOAA

Error!

Example: see airport list